Time;durP1;ratioP1;P1;durP2;ratioP2;P2;SDS_P1;SDS_P2;PMS_P1;PMS_P2;Temp;Humidity;BMP_temperature;BMP_pressure;BME280_temperature;BME280_humidity;BME280_pressure;Samples;Min_cycle;Max_cycle;Signal;HPM_P1;HPM_P2
2022/08/28 00:00:12;;;;;;;8.13;4.50;;;24.10;64.40;;;;;;5074303;28;20282;-72
2022/08/28 00:02:40;;;;;;;9.95;5.35;;;24.20;64.60;;;;;;5077671;28;20212;-73
2022/08/28 00:05:08;;;;;;;9.07;4.05;;;24.20;64.60;;;;;;5068511;28;20208;-71
2022/08/28 00:07:35;;;;;;;6.47;3.60;;;24.10;64.50;;;;;;5074839;28;20212;-72
2022/08/28 00:10:02;;;;;;;8.93;3.70;;;24.20;64.70;;;;;;5077150;28;20237;-72
2022/08/28 00:12:30;;;;;;;8.27;4.10;;;24.20;64.70;;;;;;5072785;28;20208;-72
2022/08/28 00:14:58;;;;;;;9.20;3.67;;;24.20;64.70;;;;;;5074954;28;20721;-73
2022/08/28 00:17:25;;;;;;;10.70;4.20;;;24.10;64.70;;;;;;5074360;28;20228;-73
2022/08/28 00:19:51;;;;;;;8.20;4.10;;;24.10;64.80;;;;;;5075690;28;20236;-73
2022/08/28 00:22:19;;;;;;;9.68;4.50;;;24.20;65.00;;;;;;5074938;28;20577;-72
2022/08/28 00:24:46;;;;;;;6.85;3.38;;;24.10;65.70;;;;;;5072683;28;20296;-72
2022/08/28 00:29:59;;;;;;;9.38;4.68;;;24.10;65.00;;;;;;5074620;28;20212;-73
2022/08/28 00:32:27;;;;;;;9.05;4.15;;;24.10;65.10;;;;;;5071186;28;20638;-72
2022/08/28 00:34:54;;;;;;;10.93;4.60;;;24.00;65.20;;;;;;5073154;28;20205;-73
2022/08/28 00:37:20;;;;;;;8.88;4.00;;;24.00;65.40;;;;;;5076000;28;20204;-72
2022/08/28 00:39:48;;;;;;;11.38;4.75;;;23.90;65.50;;;;;;5074344;28;20538;-72
2022/08/28 00:42:14;;;;;;;9.05;4.40;;;23.90;65.60;;;;;;5075719;28;20247;-72
2022/08/28 00:44:41;;;;;;;10.23;4.60;;;23.90;65.70;;;;;;5070641;28;20550;-72
2022/08/28 00:47:09;;;;;;;8.95;4.88;;;23.90;65.90;;;;;;5075407;28;20658;-72
2022/08/28 00:49:45;;;;;;;9.98;4.78;;;23.80;66.00;;;;;;5075394;28;20283;-74
2022/08/28 00:52:14;;;;;;;10.48;4.65;;;23.80;66.20;;;;;;5060167;28;20216;-73
2022/08/28 00:54:45;;;;;;;10.30;4.50;;;23.80;66.40;;;;;;5074675;28;20309;-73
2022/08/28 00:57:18;;;;;;;7.40;4.35;;;23.80;66.60;;;;;;5074805;28;20279;-73
2022/08/28 00:59:44;;;;;;;8.48;4.40;;;23.70;66.80;;;;;;5074904;28;20213;-73
2022/08/28 01:02:12;;;;;;;10.18;4.43;;;23.60;66.90;;;;;;5073161;28;20290;-73
2022/08/28 01:04:40;;;;;;;7.25;4.45;;;23.60;67.10;;;;;;5075164;28;20235;-73
2022/08/28 01:07:11;;;;;;;9.07;5.50;;;23.60;67.40;;;;;;5075107;28;20205;-73
2022/08/28 01:09:41;;;;;;;8.95;4.75;;;23.50;67.40;;;;;;5073439;28;20549;-74
2022/08/28 01:12:14;;;;;;;11.35;4.55;;;23.50;67.60;;;;;;5072147;28;20201;-72
2022/08/28 01:14:44;;;;;;;9.98;4.88;;;23.50;67.80;;;;;;5072242;28;20489;-73
2022/08/28 01:17:15;;;;;;;9.70;4.68;;;23.50;67.90;;;;;;5073328;28;20201;-73
2022/08/28 01:19:46;;;;;;;10.15;4.68;;;23.40;67.80;;;;;;5073816;28;20193;-72
2022/08/28 01:22:21;;;;;;;11.23;4.57;;;23.40;68.00;;;;;;5073697;28;20237;-72
2022/08/28 01:24:52;;;;;;;7.13;5.20;;;23.40;68.50;;;;;;5073303;28;20215;-73
2022/08/28 01:27:21;;;;;;;10.85;4.95;;;23.30;68.60;;;;;;5073161;28;20233;-73
2022/08/28 01:29:48;;;;;;;15.77;7.93;;;23.30;68.80;;;;;;5073165;28;20205;-73
2022/08/28 01:32:30;;;;;;;11.75;6.20;;;23.30;69.10;;;;;;5068688;28;20210;-73
2022/08/28 01:34:58;;;;;;;18.48;7.20;;;23.20;69.10;;;;;;5072740;28;20649;-73
2022/08/28 01:37:24;;;;;;;15.88;6.60;;;23.10;69.20;;;;;;5074355;28;20600;-72
2022/08/28 01:39:53;;;;;;;12.40;7.20;;;23.20;69.50;;;;;;5073991;28;20224;-72
2022/08/28 01:42:21;;;;;;;16.27;8.65;;;23.20;69.70;;;;;;5074109;28;20692;-72
2022/08/28 01:44:49;;;;;;;15.18;7.95;;;23.20;70.00;;;;;;5072745;28;20241;-73
2022/08/28 01:47:16;;;;;;;15.93;7.68;;;23.10;70.00;;;;;;5073158;28;20205;-73
2022/08/28 01:49:42;;;;;;;15.50;8.07;;;23.00;70.10;;;;;;5073981;28;20204;-73
2022/08/28 01:52:09;;;;;;;15.45;8.48;;;23.00;70.10;;;;;;5072504;28;20209;-73
2022/08/28 01:54:36;;;;;;;15.65;8.20;;;23.00;70.30;;;;;;5074220;28;20224;-72
2022/08/28 01:57:05;;;;;;;14.45;8.38;;;23.00;70.30;;;;;;5072585;28;20213;-73
2022/08/28 01:59:32;;;;;;;12.93;7.53;;;22.90;70.30;;;;;;5063785;28;20217;-72
2022/08/28 02:01:58;;;;;;;16.35;8.25;;;22.90;70.40;;;;;;5064459;28;20268;-73
2022/08/28 02:04:25;;;;;;;15.40;7.75;;;22.90;70.50;;;;;;5074798;28;20205;-72
2022/08/28 02:06:52;;;;;;;13.75;7.75;;;22.90;70.50;;;;;;5070522;28;20200;-72
2022/08/28 02:09:19;;;;;;;18.30;7.45;;;22.90;70.60;;;;;;5073010;28;20194;-73
2022/08/28 02:11:46;;;;;;;16.83;7.15;;;22.80;70.70;;;;;;5072994;28;20201;-72
2022/08/28 02:14:14;;;;;;;12.90;6.82;;;22.80;70.80;;;;;;5073558;28;20231;-72
2022/08/28 02:16:41;;;;;;;11.85;6.15;;;22.80;70.80;;;;;;5072681;28;20208;-72
2022/08/28 02:19:08;;;;;;;12.55;6.25;;;22.80;71.00;;;;;;5073733;28;20813;-72
2022/08/28 02:21:35;;;;;;;11.85;6.32;;;22.70;71.10;;;;;;5072850;28;20244;-73
2022/08/28 02:24:02;;;;;;;13.20;6.38;;;22.70;71.10;;;;;;5072511;28;20243;-73
2022/08/28 02:26:30;;;;;;;12.25;6.15;;;22.70;71.30;;;;;;5072973;28;20229;-72
2022/08/28 02:28:57;;;;;;;14.00;6.93;;;22.60;71.40;;;;;;5074669;28;20209;-73
2022/08/28 02:31:26;;;;;;;8.63;5.95;;;22.60;71.60;;;;;;5066990;28;20209;-73
2022/08/28 02:33:53;;;;;;;10.80;6.22;;;22.50;71.70;;;;;;5072808;28;20217;-73
2022/08/28 02:36:19;;;;;;;12.40;6.10;;;22.50;71.90;;;;;;5071949;28;20290;-72
2022/08/28 02:38:47;;;;;;;12.77;7.30;;;22.50;72.10;;;;;;5074357;28;20650;-73
2022/08/28 02:41:14;;;;;;;13.38;6.68;;;22.50;72.20;;;;;;5073298;28;20221;-72
2022/08/28 02:43:41;;;;;;;9.70;6.15;;;22.40;72.20;;;;;;5073547;28;20202;-72
2022/08/28 02:46:08;;;;;;;9.30;5.90;;;22.40;72.20;;;;;;5072019;28;20205;-72
2022/08/28 02:48:39;;;;;;;10.02;6.28;;;22.40;72.40;;;;;;5070416;28;20597;-72
2022/08/28 02:51:08;;;;;;;13.85;6.35;;;22.30;72.50;;;;;;5071807;28;20285;-72
2022/08/28 02:53:36;;;;;;;8.98;5.75;;;22.30;72.80;;;;;;5069869;28;20205;-70
2022/08/28 02:56:04;;;;;;;10.38;6.43;;;22.30;72.80;;;;;;5072496;28;20209;-70
2022/08/28 02:58:33;;;;;;;13.90;5.95;;;22.30;73.00;;;;;;5068747;28;20264;-69
2022/08/28 03:01:00;;;;;;;11.68;5.78;;;22.20;73.00;;;;;;5070578;28;20256;-70
2022/08/28 03:03:27;;;;;;;12.73;5.80;;;22.20;73.10;;;;;;5069497;28;20551;-70
2022/08/28 03:05:55;;;;;;;9.82;5.30;;;22.10;73.20;;;;;;5058538;28;20255;-70
2022/08/28 03:08:23;;;;;;;10.38;5.22;;;22.10;73.50;;;;;;5070059;28;20197;-70
2022/08/28 03:10:50;;;;;;;11.80;5.85;;;22.00;73.50;;;;;;5075363;28;20239;-70
2022/08/28 03:13:17;;;;;;;9.82;5.82;;;22.00;73.90;;;;;;5074867;28;20330;-70
2022/08/28 03:15:44;;;;;;;11.63;5.25;;;21.90;74.00;;;;;;5074736;28;20433;-71
2022/08/28 03:18:11;;;;;;;10.15;5.85;;;21.80;74.20;;;;;;5075265;28;20221;-71
2022/08/28 03:20:38;;;;;;;11.60;5.70;;;21.80;74.30;;;;;;5075159;28;20221;-71
2022/08/28 03:25:51;;;;;;;7.53;5.20;;;21.70;74.80;;;;;;5075009;28;20422;-70
2022/08/28 03:28:18;;;;;;;11.43;5.45;;;21.70;75.00;;;;;;5073094;28;20208;-71
2022/08/28 03:30:46;;;;;;;8.20;5.32;;;21.70;75.10;;;;;;5068293;28;20205;-71
2022/08/28 03:33:13;;;;;;;12.52;5.43;;;21.70;75.30;;;;;;5072903;28;20233;-71
2022/08/28 03:35:40;;;;;;;11.27;5.20;;;21.60;75.30;;;;;;5075071;28;20229;-71
2022/08/28 03:38:10;;;;;;;9.95;5.30;;;21.50;75.30;;;;;;5073982;28;20213;-70
2022/08/28 03:40:39;;;;;;;11.45;5.38;;;21.60;75.50;;;;;;5073716;28;20213;-71
2022/08/28 03:43:06;;;;;;;9.55;5.03;;;21.60;75.80;;;;;;5073419;28;20201;-71
2022/08/28 03:45:33;;;;;;;11.30;5.32;;;21.60;75.90;;;;;;5075356;28;20201;-71
2022/08/28 03:47:59;;;;;;;13.73;6.03;;;21.60;75.90;;;;;;5073647;28;20654;-70
2022/08/28 03:50:26;;;;;;;8.88;4.97;;;21.60;75.90;;;;;;5074736;28;20209;-70
2022/08/28 03:52:53;;;;;;;10.63;5.32;;;21.60;76.00;;;;;;5074575;28;20232;-70
2022/08/28 03:55:21;;;;;;;7.97;4.97;;;21.60;76.20;;;;;;5074611;28;20394;-70
2022/08/28 03:57:50;;;;;;;10.07;5.07;;;21.50;76.30;;;;;;5074267;28;20578;-70
2022/08/28 04:00:19;;;;;;;13.40;5.30;;;21.50;76.50;;;;;;5072715;28;20201;-70
2022/08/28 04:02:47;;;;;;;13.20;5.90;;;21.50;76.50;;;;;;5072138;28;20315;-71
2022/08/28 04:05:16;;;;;;;8.18;4.88;;;21.50;76.60;;;;;;5060804;28;20216;-70
2022/08/28 04:07:43;;;;;;;13.00;5.72;;;21.50;76.70;;;;;;5074177;28;20209;-70
2022/08/28 04:10:11;;;;;;;10.70;5.97;;;21.50;76.90;;;;;;5072642;28;20209;-71
2022/08/28 04:12:39;;;;;;;7.80;5.70;;;21.50;77.00;;;;;;5060304;28;20224;-70
2022/08/28 04:15:08;;;;;;;12.18;5.75;;;21.50;77.00;;;;;;5074210;28;20236;-71
2022/08/28 04:17:36;;;;;;;14.20;5.95;;;21.50;77.00;;;;;;5072254;28;20229;-74
2022/08/28 04:20:04;;;;;;;12.18;5.90;;;21.50;77.30;;;;;;5073123;28;20265;-74
2022/08/28 04:22:31;;;;;;;7.15;4.85;;;21.50;77.40;;;;;;5073752;28;20221;-73
2022/08/28 04:24:58;;;;;;;10.00;5.53;;;21.50;77.30;;;;;;5071898;28;20622;-73
2022/08/28 04:27:25;;;;;;;9.45;5.30;;;21.60;77.40;;;;;;5075368;28;20315;-74
2022/08/28 04:29:53;;;;;;;11.13;5.38;;;21.60;77.30;;;;;;5075408;28;20236;-73
2022/08/28 04:32:21;;;;;;;7.82;5.53;;;21.60;77.40;;;;;;5069838;28;20193;-71
2022/08/28 04:34:48;;;;;;;9.13;5.53;;;21.70;77.40;;;;;;5069591;28;20220;-70
2022/08/28 04:37:15;;;;;;;9.65;5.65;;;21.70;77.30;;;;;;5071931;28;20209;-72
2022/08/28 04:39:42;;;;;;;9.95;5.93;;;21.70;77.30;;;;;;5072112;28;20201;-72
2022/08/28 04:42:09;;;;;;;8.60;4.55;;;21.70;77.30;;;;;;5072641;28;20228;-70
2022/08/28 04:44:36;;;;;;;9.52;5.15;;;21.70;77.50;;;;;;5073155;28;20289;-70
2022/08/28 04:47:04;;;;;;;10.27;5.88;;;21.70;77.50;;;;;;5061664;28;20210;-70
2022/08/28 04:49:31;;;;;;;10.35;5.85;;;21.70;77.40;;;;;;5062991;28;20205;-71
2022/08/28 04:51:57;;;;;;;10.02;5.90;;;21.70;77.40;;;;;;5059539;28;20212;-72
2022/08/28 04:54:24;;;;;;;8.07;5.47;;;21.70;77.40;;;;;;5072089;28;20673;-71
2022/08/28 04:56:51;;;;;;;13.23;5.65;;;21.80;77.50;;;;;;5072986;28;20202;-71
2022/08/28 04:59:18;;;;;;;11.68;6.10;;;21.80;77.60;;;;;;5072683;28;20220;-71
2022/08/28 05:01:46;;;;;;;10.63;5.50;;;21.90;77.60;;;;;;5066552;28;20317;-71
2022/08/28 05:04:14;;;;;;;10.13;5.38;;;21.90;77.50;;;;;;5072667;28;20213;-71
2022/08/28 05:06:44;;;;;;;8.15;5.63;;;22.00;77.50;;;;;;5062871;28;20202;-71
2022/08/28 05:09:12;;;;;;;7.72;5.40;;;22.10;78.20;;;;;;5071678;28;20567;-72
2022/08/28 05:11:39;;;;;;;8.48;4.85;;;22.20;77.30;;;;;;5073585;28;20669;-71
2022/08/28 05:14:09;;;;;;;11.20;5.68;;;22.20;77.30;;;;;;5071572;28;20209;-72
2022/08/28 05:16:41;;;;;;;10.98;5.40;;;22.30;77.40;;;;;;5066247;28;20655;-73
2022/08/28 05:19:08;;;;;;;8.13;5.75;;;22.30;77.00;;;;;;5072947;28;20213;-73
2022/08/28 05:21:37;;;;;;;8.07;5.80;;;22.40;77.10;;;;;;5063967;28;20612;-73
2022/08/28 05:24:05;;;;;;;8.98;5.60;;;22.50;76.90;;;;;;5070349;28;20228;-73
2022/08/28 05:26:33;;;;;;;12.00;6.55;;;22.50;76.80;;;;;;5075065;28;20208;-73
2022/08/28 05:29:00;;;;;;;8.93;5.97;;;22.60;76.90;;;;;;5072402;28;20234;-74
2022/08/28 05:31:29;;;;;;;12.73;5.68;;;22.60;76.90;;;;;;5071048;28;20197;-73
2022/08/28 05:33:56;;;;;;;10.02;5.90;;;22.70;77.00;;;;;;5063247;28;20586;-74
2022/08/28 05:36:24;;;;;;;13.05;5.72;;;22.80;77.10;;;;;;5067870;28;20225;-72
2022/08/28 05:38:56;;;;;;;12.88;6.20;;;22.80;77.00;;;;;;5068965;28;20213;-73
2022/08/28 05:41:25;;;;;;;10.93;5.70;;;22.90;77.20;;;;;;5071444;28;20234;-72
2022/08/28 05:43:52;;;;;;;8.45;4.85;;;23.00;77.00;;;;;;5073333;28;20213;-72
2022/08/28 05:46:20;;;;;;;11.18;6.22;;;23.10;76.70;;;;;;5072719;28;20197;-71
2022/08/28 05:48:48;;;;;;;12.30;5.55;;;23.10;76.40;;;;;;5073018;28;20201;-72
2022/08/28 05:51:17;;;;;;;7.75;5.47;;;23.20;76.50;;;;;;5059987;28;20221;-69
2022/08/28 05:53:45;;;;;;;10.07;5.80;;;23.30;76.60;;;;;;5069463;28;20280;-69
2022/08/28 05:56:16;;;;;;;9.05;5.63;;;23.30;76.50;;;;;;5069381;28;20406;-69
2022/08/28 05:58:43;;;;;;;12.75;6.20;;;23.40;76.60;;;;;;5071038;28;20223;-68
2022/08/28 06:01:13;;;;;;;10.43;5.50;;;23.40;76.60;;;;;;5068335;28;20209;-70
2022/08/28 06:03:41;;;;;;;8.50;5.88;;;23.50;76.70;;;;;;5072499;28;20201;-71
2022/08/28 06:06:09;;;;;;;13.55;6.13;;;23.60;76.60;;;;;;5071026;28;20236;-73
2022/08/28 06:08:37;;;;;;;11.00;5.55;;;23.60;76.20;;;;;;5070405;28;20285;-73
2022/08/28 06:11:04;;;;;;;11.20;6.57;;;23.60;76.10;;;;;;5060281;28;20201;-72
2022/08/28 06:13:32;;;;;;;13.77;5.97;;;23.60;76.10;;;;;;5065965;28;20205;-73
2022/08/28 06:15:59;;;;;;;10.60;5.85;;;23.70;76.20;;;;;;5071211;28;20601;-72
2022/08/28 06:18:27;;;;;;;10.75;6.22;;;23.70;76.20;;;;;;5071117;28;20209;-68
2022/08/28 06:20:54;;;;;;;12.18;6.43;;;23.80;76.20;;;;;;5071123;28;20216;-68
2022/08/28 06:23:22;;;;;;;11.57;6.25;;;23.80;76.30;;;;;;5064207;28;20570;-68
2022/08/28 06:25:51;;;;;;;8.57;5.75;;;23.80;76.40;;;;;;5068318;28;20209;-68
2022/08/28 06:28:20;;;;;;;8.15;5.57;;;23.90;76.60;;;;;;5061982;28;20205;-67
2022/08/28 06:30:50;;;;;;;10.98;6.18;;;24.00;76.70;;;;;;5068294;28;20201;-73
2022/08/28 06:33:20;;;;;;;11.25;6.55;;;24.00;76.70;;;;;;5065772;28;20658;-73
2022/08/28 06:35:49;;;;;;;12.63;6.50;;;24.20;76.60;;;;;;5061058;28;20229;-66
2022/08/28 06:38:19;;;;;;;8.38;6.10;;;24.20;76.40;;;;;;5065270;28;20205;-68
2022/08/28 06:40:49;;;;;;;7.78;5.82;;;24.30;76.50;;;;;;5065093;28;20208;-67
2022/08/28 06:43:17;;;;;;;8.90;5.65;;;24.30;76.50;;;;;;5071433;28;20232;-68
2022/08/28 06:45:46;;;;;;;9.93;6.13;;;24.30;76.70;;;;;;5072850;28;20556;-67
2022/08/28 06:48:18;;;;;;;10.77;6.15;;;24.40;76.60;;;;;;5076076;28;20204;-68
2022/08/28 06:50:49;;;;;;;11.10;5.50;;;24.50;76.50;;;;;;5071203;28;20568;-67
2022/08/28 06:53:18;;;;;;;6.45;5.35;;;24.60;76.50;;;;;;5075113;28;20202;-69
2022/08/28 06:55:44;;;;;;;7.80;5.72;;;24.60;76.20;;;;;;5075402;28;20204;-67
2022/08/28 06:58:12;;;;;;;10.13;6.32;;;24.70;76.30;;;;;;5072821;28;20201;-68
2022/08/28 07:00:40;;;;;;;9.52;6.05;;;24.80;76.00;;;;;;5072277;28;20205;-68
2022/08/28 07:03:07;;;;;;;10.45;5.65;;;24.80;76.10;;;;;;5071109;28;20216;-68
2022/08/28 07:05:35;;;;;;;10.73;6.28;;;25.00;76.00;;;;;;5072309;28;20244;-68
2022/08/28 07:08:02;;;;;;;7.97;5.75;;;25.10;75.90;;;;;;5074922;28;20201;-69
2022/08/28 07:10:30;;;;;;;9.10;5.53;;;25.10;75.40;;;;;;5070635;28;20216;-66
2022/08/28 07:12:57;;;;;;;8.63;6.05;;;25.20;75.60;;;;;;5070884;28;20209;-67
2022/08/28 07:15:24;;;;;;;10.23;5.88;;;25.30;75.50;;;;;;5074918;28;20213;-67
2022/08/28 07:17:51;;;;;;;10.95;6.70;;;25.50;75.30;;;;;;5074181;28;20265;-69
2022/08/28 07:20:18;;;;;;;12.63;6.40;;;25.60;75.10;;;;;;5070514;28;20960;-67
2022/08/28 07:22:46;;;;;;;8.57;6.20;;;25.60;75.00;;;;;;5077369;28;20220;-68
2022/08/28 07:25:13;;;;;;;11.15;7.35;;;25.70;75.00;;;;;;5078056;28;20685;-67
2022/08/28 07:27:39;;;;;;;10.90;6.38;;;25.70;74.70;;;;;;5078444;28;20201;-69
2022/08/28 07:30:08;;;;;;;9.75;6.82;;;25.80;74.60;;;;;;5076831;28;20213;-67
2022/08/28 07:32:37;;;;;;;8.43;6.30;;;25.90;74.40;;;;;;5070600;28;20271;-67
2022/08/28 07:35:04;;;;;;;9.80;6.50;;;25.90;74.40;;;;;;5070871;28;20236;-69
2022/08/28 07:37:30;;;;;;;13.25;6.43;;;26.10;74.40;;;;;;5074283;28;20213;-67
2022/08/28 07:39:58;;;;;;;11.02;6.35;;;26.30;74.20;;;;;;5074895;28;20197;-65
2022/08/28 07:45:10;;;;;;;8.55;5.90;;;26.50;73.40;;;;;;5075585;28;20201;-66
2022/08/28 07:47:37;;;;;;;9.70;6.75;;;26.60;73.30;;;;;;5076234;28;20213;-66
2022/08/28 07:50:05;;;;;;;12.07;6.25;;;26.80;72.90;;;;;;5069617;28;20704;-69
2022/08/28 07:52:31;;;;;;;10.38;6.10;;;26.90;72.50;;;;;;5068732;28;20565;-66
2022/08/28 07:55:00;;;;;;;11.32;5.90;;;27.10;72.50;;;;;;5073536;28;20228;-67
2022/08/28 07:57:26;;;;;;;12.73;6.20;;;27.30;71.30;;;;;;5071849;28;20209;-63
2022/08/28 07:59:53;;;;;;;11.27;6.63;;;27.40;70.50;;;;;;5072246;28;20247;-66
2022/08/28 08:02:20;;;;;;;10.48;6.75;;;27.50;70.50;;;;;;5072920;28;20221;-67
2022/08/28 08:04:47;;;;;;;9.68;6.32;;;27.70;70.60;;;;;;5064231;28;20670;-67
2022/08/28 08:07:16;;;;;;;11.07;6.50;;;27.90;70.30;;;;;;5068067;28;20674;-67
2022/08/28 08:09:45;;;;;;;10.10;6.40;;;28.10;70.00;;;;;;5066722;28;20255;-66
2022/08/28 08:12:14;;;;;;;11.30;5.78;;;28.20;69.40;;;;;;5070899;28;20201;-66
2022/08/28 08:14:42;;;;;;;8.15;5.90;;;28.50;69.00;;;;;;5059384;28;20319;-68
2022/08/28 08:17:10;;;;;;;10.25;5.80;;;28.70;68.80;;;;;;5068024;28;20213;-67
2022/08/28 08:19:38;;;;;;;14.23;6.03;;;28.80;68.20;;;;;;5070669;28;20522;-67
2022/08/28 08:22:05;;;;;;;9.45;5.57;;;29.00;67.90;;;;;;5071804;28;20257;-68
2022/08/28 08:24:32;;;;;;;9.02;5.70;;;29.10;67.30;;;;;;5069338;28;20203;-66
2022/08/28 08:27:01;;;;;;;13.88;6.47;;;29.20;66.40;;;;;;5065135;28;20232;-67
2022/08/28 08:29:34;;;;;;;13.13;6.97;;;29.40;67.10;;;;;;5073616;28;20201;-66
2022/08/28 08:32:04;;;;;;;8.20;5.53;;;29.50;66.20;;;;;;5064650;28;20262;-65
2022/08/28 08:34:31;;;;;;;10.90;5.60;;;29.70;65.90;;;;;;5072283;28;20201;-65
2022/08/28 08:36:58;;;;;;;9.35;5.10;;;29.90;66.40;;;;;;5070894;28;20240;-66
2022/08/28 08:39:25;;;;;;;10.48;5.30;;;30.00;64.80;;;;;;5074721;28;20576;-66
2022/08/28 08:41:56;;;;;;;15.43;5.63;;;30.20;63.00;;;;;;5067251;28;20580;-66
2022/08/28 08:44:26;;;;;;;9.63;5.03;;;30.20;62.00;;;;;;5072312;28;20201;-67
2022/08/28 08:47:03;;;;;;;10.68;5.07;;;30.30;61.70;;;;;;5065280;28;20267;-67
2022/08/28 08:49:34;;;;;;;7.88;4.85;;;30.40;61.20;;;;;;5069634;28;20712;-68
2022/08/28 08:52:21;;;;;;;8.55;4.45;;;30.60;60.30;;;;;;5067208;28;20198;-66
2022/08/28 08:55:01;;;;;;;7.60;5.00;;;30.70;59.90;;;;;;5067520;28;20623;-66
2022/08/28 08:57:28;;;;;;;9.25;4.95;;;30.80;59.50;;;;;;5065805;28;20209;-67
2022/08/28 08:59:55;;;;;;;10.40;5.35;;;31.00;59.20;;;;;;5071391;28;20676;-67
2022/08/28 09:02:29;;;;;;;14.70;5.53;;;31.10;59.70;;;;;;5061305;28;20692;-69
2022/08/28 09:05:02;;;;;;;10.50;5.20;;;31.20;58.80;;;;;;5060330;28;20565;-65
2022/08/28 09:07:36;;;;;;;7.93;4.78;;;31.40;59.10;;;;;;5066150;28;20208;-66
2022/08/28 09:10:07;;;;;;;11.68;5.22;;;31.60;59.10;;;;;;5065481;28;20209;-65
2022/08/28 09:12:48;;;;;;;8.15;4.78;;;31.80;58.70;;;;;;5062922;28;20201;-65
2022/08/28 09:15:21;;;;;;;8.65;5.57;;;32.20;58.40;;;;;;5069937;28;20231;-67
2022/08/28 09:17:53;;;;;;;12.45;5.63;;;32.40;57.60;;;;;;5069793;28;20193;-66
2022/08/28 09:20:22;;;;;;;13.70;5.10;;;32.70;57.40;;;;;;5068479;28;20233;-65
2022/08/28 09:22:50;;;;;;;8.75;5.05;;;33.00;57.80;;;;;;5065433;28;20732;-65
2022/08/28 09:25:49;;;;;;;16.45;5.03;;;33.30;57.60;;;;;;5069246;28;20216;-65
2022/08/28 09:28:18;;;;;;;9.85;4.85;;;33.70;57.50;;;;;;5066728;28;20247;-65
2022/08/28 09:30:54;;;;;;;7.95;4.95;;;34.10;56.50;;;;;;5068889;28;20216;-65
2022/08/28 09:33:30;;;;;;;9.70;5.20;;;34.30;55.80;;;;;;5060880;28;20552;-64
2022/08/28 09:35:57;;;;;;;8.98;4.93;;;34.50;55.60;;;;;;5068532;28;20241;-66
2022/08/28 09:38:25;;;;;;;10.45;4.97;;;34.90;55.30;;;;;;5068883;28;20585;-67
2022/08/28 09:43:53;;;;;;;10.50;4.97;;;35.40;54.50;;;;;;5046226;28;20240;-66
2022/08/28 09:46:24;;;;;;;8.23;4.07;;;35.60;54.20;;;;;;5069877;28;20452;-67
2022/08/28 09:48:52;;;;;;;6.00;4.55;;;35.90;53.20;;;;;;5058055;28;20224;-68
2022/08/28 09:51:28;;;;;;;8.60;4.63;;;36.10;53.00;;;;;;5071041;28;20205;-67
2022/08/28 09:54:02;;;;;;;6.22;3.80;;;36.20;52.80;;;;;;5060822;28;20940;-66
2022/08/28 09:56:32;;;;;;;6.47;4.25;;;36.30;52.40;;;;;;5070892;28;20201;-68
2022/08/28 09:59:01;;;;;;;9.07;4.68;;;36.60;52.10;;;;;;5066921;28;20307;-66
2022/08/28 10:01:43;;;;;;;7.38;4.18;;;36.70;51.20;;;;;;5063811;28;20227;-66
2022/08/28 10:04:54;;;;;;;7.80;4.20;;;36.90;50.90;;;;;;5067861;28;20299;-67
2022/08/28 10:07:31;;;;;;;10.38;4.70;;;37.10;50.70;;;;;;5025020;28;20210;-67
2022/08/28 10:10:12;;;;;;;6.38;3.95;;;37.30;50.00;;;;;;5019399;28;20203;-67
2022/08/28 10:12:47;;;;;;;10.18;4.10;;;37.20;49.90;;;;;;5058478;28;20227;-67
2022/08/28 10:15:21;;;;;;;8.05;4.22;;;37.30;49.30;;;;;;5071244;28;20208;-67
2022/08/28 10:18:16;;;;;;;6.95;3.85;;;37.20;48.80;;;;;;5066267;28;20212;-65
2022/08/28 10:20:53;;;;;;;9.48;4.60;;;37.20;48.50;;;;;;5068699;28;20201;-68
2022/08/28 10:23:28;;;;;;;9.88;3.75;;;37.30;48.70;;;;;;5069090;28;20236;-68
2022/08/28 10:26:04;;;;;;;8.27;3.90;;;37.50;48.50;;;;;;5070526;28;20560;-68
2022/08/28 10:28:49;;;;;;;10.05;4.15;;;37.70;47.80;;;;;;5069416;28;20269;-67
2022/08/28 10:31:21;;;;;;;10.80;3.75;;;37.80;47.60;;;;;;5070339;28;20318;-66
2022/08/28 10:34:04;;;;;;;6.15;3.45;;;37.80;47.40;;;;;;5070398;28;20209;-66
2022/08/28 10:36:34;;;;;;;8.75;4.05;;;37.90;46.40;;;;;;5070009;28;20585;-67
2022/08/28 10:39:16;;;;;;;7.13;3.78;;;37.70;46.50;;;;;;5070111;28;20224;-67
2022/08/28 10:41:47;;;;;;;8.25;3.28;;;37.50;46.50;;;;;;5070644;28;20208;-67
2022/08/28 10:44:19;;;;;;;8.20;3.55;;;37.60;46.50;;;;;;5069706;28;20228;-67
2022/08/28 10:46:50;;;;;;;8.45;3.42;;;37.80;46.60;;;;;;5071386;28;20201;-67
2022/08/28 10:49:25;;;;;;;8.88;3.70;;;37.90;45.50;;;;;;5071036;28;20299;-67
2022/08/28 10:51:56;;;;;;;8.45;3.75;;;38.10;45.00;;;;;;5070076;28;20421;-68
2022/08/28 10:54:29;;;;;;;6.10;3.40;;;38.20;45.50;;;;;;5069468;28;20197;-67
2022/08/28 10:57:01;;;;;;;10.85;3.70;;;38.10;46.20;;;;;;5066789;28;20676;-67
2022/08/28 10:59:31;;;;;;;6.15;3.45;;;37.90;46.50;;;;;;5067353;28;20212;-67
2022/08/28 11:01:59;;;;;;;6.57;3.30;;;37.90;45.90;;;;;;5070193;28;20271;-67
2022/08/28 11:04:27;;;;;;;12.18;3.88;;;37.80;45.40;;;;;;5071304;28;20686;-67
2022/08/28 11:06:59;;;;;;;10.02;3.28;;;37.90;45.50;;;;;;5069928;28;20334;-67
2022/08/28 11:09:32;;;;;;;8.18;3.47;;;38.10;45.70;;;;;;5071314;28;20202;-68
2022/08/28 11:12:01;;;;;;;7.75;3.17;;;38.40;45.60;;;;;;5071158;28;20201;-67
2022/08/28 11:14:32;;;;;;;9.48;3.92;;;38.70;45.30;;;;;;5070698;28;20712;-66
2022/08/28 11:17:02;;;;;;;5.40;3.30;;;39.00;44.80;;;;;;5069576;28;20289;-67
2022/08/28 11:20:01;;;;;;;4.40;3.42;;;39.20;43.60;;;;;;5070758;28;20216;-67
2022/08/28 11:22:34;;;;;;;5.85;3.88;;;39.20;43.00;;;;;;5070778;28;20233;-67
2022/08/28 11:25:07;;;;;;;4.43;3.50;;;39.10;43.30;;;;;;5070340;28;20197;-67
2022/08/28 11:27:36;;;;;;;5.80;3.33;;;39.00;43.50;;;;;;5070857;28;20211;-66
2022/08/28 11:30:34;;;;;;;10.65;3.63;;;39.10;43.50;;;;;;5069565;28;20206;-67
2022/08/28 11:33:04;;;;;;;6.10;3.53;;;39.20;42.80;;;;;;5072503;28;20201;-67
2022/08/28 11:35:52;;;;;;;7.70;3.35;;;39.20;42.70;;;;;;5074565;28;20259;-67
2022/08/28 11:39:02;;;;;;;4.80;3.13;;;39.10;42.60;;;;;;5070008;28;20209;-67
2022/08/28 11:41:31;;;;;;;5.30;3.38;;;39.00;42.30;;;;;;5073125;28;20201;-67
2022/08/28 11:44:26;;;;;;;10.35;3.80;;;39.00;41.50;;;;;;5072809;28;20240;-67
2022/08/28 11:46:55;;;;;;;9.10;3.30;;;39.00;41.00;;;;;;5073957;28;20664;-68
2022/08/28 11:49:41;;;;;;;10.00;3.83;;;38.80;40.80;;;;;;5074058;28;20216;-66
2022/08/28 11:52:24;;;;;;;4.97;3.15;;;38.70;42.00;;;;;;5074422;28;20213;-67
2022/08/28 11:55:00;;;;;;;6.05;3.90;;;38.50;42.80;;;;;;5074009;28;20201;-68
2022/08/28 11:57:41;;;;;;;10.43;3.40;;;38.50;43.40;;;;;;5073588;28;20740;-66
2022/08/28 12:00:11;;;;;;;6.97;3.50;;;38.50;43.60;;;;;;5064380;28;20596;-67
2022/08/28 12:02:49;;;;;;;6.03;4.07;;;38.50;44.00;;;;;;5072875;28;20265;-67
2022/08/28 12:05:42;;;;;;;6.65;3.90;;;38.60;44.70;;;;;;5074883;28;20212;-67
2022/08/28 12:08:10;;;;;;;5.47;3.75;;;38.60;44.30;;;;;;5073926;28;20201;-67
2022/08/28 12:10:57;;;;;;;6.57;3.80;;;38.60;44.60;;;;;;5073408;28;20202;-68
2022/08/28 12:13:48;;;;;;;13.98;4.40;;;38.20;45.30;;;;;;5074367;28;20193;-66
2022/08/28 12:16:15;;;;;;;9.05;3.92;;;38.10;45.40;;;;;;5075331;28;20201;-67
2022/08/28 12:19:02;;;;;;;8.07;4.43;;;38.00;45.30;;;;;;5075820;28;20209;-67
2022/08/28 12:21:35;;;;;;;9.23;3.80;;;38.00;44.90;;;;;;5075188;28;20209;-67
2022/08/28 12:24:04;;;;;;;6.22;3.78;;;38.00;44.40;;;;;;5073732;28;20209;-66
2022/08/28 12:26:37;;;;;;;8.52;4.18;;;38.00;44.40;;;;;;5067125;28;20209;-68
2022/08/28 12:29:17;;;;;;;5.75;3.60;;;38.00;44.20;;;;;;5070148;28;20268;-67
2022/08/28 12:32:23;;;;;;;11.15;3.60;;;37.90;43.80;;;;;;5064712;28;20202;-67
2022/08/28 12:35:15;;;;;;;8.15;3.65;;;37.70;43.50;;;;;;5068460;28;20354;-67
2022/08/28 12:37:44;;;;;;;9.73;3.28;;;37.50;43.60;;;;;;5068240;28;20201;-67
2022/08/28 12:40:17;;;;;;;8.88;3.50;;;37.20;43.90;;;;;;5074269;28;20229;-67
2022/08/28 12:42:52;;;;;;;8.82;3.75;;;36.90;44.20;;;;;;5074142;28;20205;-67
2022/08/28 12:45:25;;;;;;;5.43;3.50;;;36.50;44.80;;;;;;5073144;28;20240;-67
2022/08/28 12:47:54;;;;;;;10.70;3.67;;;36.10;45.50;;;;;;5072727;28;20205;-67
2022/08/28 12:50:26;;;;;;;6.65;3.22;;;35.70;45.50;;;;;;5072021;28;20201;-67
2022/08/28 12:52:56;;;;;;;9.90;3.90;;;35.50;46.20;;;;;;5074299;28;20205;-67
2022/08/28 12:55:23;;;;;;;6.38;3.97;;;35.50;46.30;;;;;;5074065;28;20211;-67
2022/08/28 12:57:52;;;;;;;14.85;4.55;;;35.80;46.60;;;;;;5074043;28;20209;-67
2022/08/28 13:00:22;;;;;;;10.15;4.03;;;35.80;46.50;;;;;;5072738;28;20205;-68
2022/08/28 13:02:51;;;;;;;7.85;3.92;;;35.70;46.80;;;;;;5073526;28;20220;-67
2022/08/28 13:05:31;;;;;;;6.68;3.80;;;35.80;46.90;;;;;;5070735;28;20242;-67
2022/08/28 13:08:01;;;;;;;6.97;3.92;;;36.00;46.60;;;;;;5073227;28;20224;-67
2022/08/28 13:10:30;;;;;;;13.57;3.70;;;36.20;46.40;;;;;;5073273;28;20619;-67